Time;durP1;ratioP1;P1;durP2;ratioP2;P2;SDS_P1;SDS_P2;PMS_P1;PMS_P2;Temp;Humidity;BMP_temperature;BMP_pressure;BME280_temperature;BME280_humidity;BME280_pressure;Samples;Min_cycle;Max_cycle;Signal;HPM_P1;HPM_P2
2024/04/17 00:02:08;;;;;;;1.50;1.40;;;6.10;99.90;;;;;;5443965;26;20727;-72
2024/04/17 00:04:37;;;;;;;1.50;1.40;;;6.10;99.90;;;;;;5444309;26;20232;-72
2024/04/17 00:07:06;;;;;;;1.73;1.30;;;6.10;99.90;;;;;;5443888;26;20228;-72
2024/04/17 00:09:32;;;;;;;1.53;1.43;;;6.10;99.90;;;;;;5444021;26;20224;-72
2024/04/17 00:12:01;;;;;;;2.40;1.73;;;6.10;99.90;;;;;;5444204;26;20228;-72
2024/04/17 00:14:26;;;;;;;1.57;1.47;;;6.10;99.90;;;;;;5441228;26;20267;-72
2024/04/17 00:16:55;;;;;;;1.27;1.17;;;6.10;99.90;;;;;;5425592;26;20225;-71
2024/04/17 00:19:21;;;;;;;1.60;1.50;;;6.10;99.90;;;;;;5407794;26;20273;-71
2024/04/17 00:21:52;;;;;;;2.37;1.53;;;6.00;99.90;;;;;;5417264;26;20256;-72
2024/04/17 00:24:18;;;;;;;4.43;1.70;;;5.90;99.90;;;;;;5413805;26;20311;-71
2024/04/17 00:26:46;;;;;;;1.73;1.50;;;5.90;99.90;;;;;;5407981;26;20285;-71
2024/04/17 00:29:12;;;;;;;1.77;1.50;;;5.90;99.90;;;;;;5410445;26;20237;-73
2024/04/17 00:31:41;;;;;;;5.00;2.00;;;5.90;99.90;;;;;;5408887;26;20292;-72
2024/04/17 00:34:07;;;;;;;1.13;1.13;;;5.90;99.90;;;;;;5407654;26;20268;-73
2024/04/17 00:36:36;;;;;;;1.63;1.53;;;5.90;99.90;;;;;;5407484;26;20230;-72
2024/04/17 00:39:04;;;;;;;2.67;1.27;;;5.90;99.90;;;;;;5407764;26;20256;-72
2024/04/17 00:41:33;;;;;;;1.20;1.20;;;5.90;99.90;;;;;;5407633;26;20241;-72
2024/04/17 00:43:59;;;;;;;2.27;1.20;;;5.90;99.90;;;;;;5409990;26;20272;-72
2024/04/17 00:46:30;;;;;;;1.20;1.07;;;5.80;99.90;;;;;;5419049;26;20233;-71
2024/04/17 00:48:56;;;;;;;3.20;1.20;;;5.80;99.90;;;;;;5443154;26;20711;-71
2024/04/17 00:51:24;;;;;;;1.80;1.30;;;5.80;99.90;;;;;;5430603;26;20237;-71
2024/04/17 00:53:50;;;;;;;1.60;1.50;;;5.80;99.90;;;;;;5443274;26;20604;-73
2024/04/17 00:56:22;;;;;;;2.13;1.40;;;5.80;99.90;;;;;;5442912;26;20233;-73
2024/04/17 00:58:48;;;;;;;1.40;1.30;;;5.80;99.90;;;;;;5444191;26;20279;-73
2024/04/17 01:01:16;;;;;;;1.17;1.10;;;5.80;99.90;;;;;;5445256;26;20302;-72
2024/04/17 01:03:42;;;;;;;1.10;1.10;;;5.80;99.90;;;;;;5445442;26;20244;-72
2024/04/17 01:06:11;;;;;;;2.53;1.20;;;5.80;99.90;;;;;;5446326;26;20236;-71
2024/04/17 01:08:37;;;;;;;1.67;1.33;;;5.80;99.90;;;;;;5446928;26;20271;-71
2024/04/17 01:11:06;;;;;;;1.83;0.83;;;5.80;99.90;;;;;;5446174;26;20303;-71
2024/04/17 01:13:35;;;;;;;1.20;1.13;;;5.70;99.90;;;;;;5428760;26;21005;-71
2024/04/17 01:16:03;;;;;;;1.80;1.40;;;5.80;99.90;;;;;;5436956;26;20238;-71
2024/04/17 01:18:30;;;;;;;2.10;1.27;;;5.80;99.90;;;;;;5427332;26;20267;-72
2024/04/17 01:21:00;;;;;;;1.03;1.00;;;5.80;99.90;;;;;;5446813;26;20576;-72
2024/04/17 01:23:26;;;;;;;1.10;1.00;;;5.90;99.90;;;;;;5446938;26;20730;-72
2024/04/17 01:25:57;;;;;;;1.07;0.97;;;5.90;99.90;;;;;;5447165;26;20345;-72
2024/04/17 01:28:23;;;;;;;2.20;1.00;;;5.90;99.90;;;;;;5444483;26;20232;-73
2024/04/17 01:30:52;;;;;;;1.23;1.13;;;6.00;99.90;;;;;;5446762;26;20742;-73
2024/04/17 01:33:18;;;;;;;2.90;1.30;;;5.90;99.90;;;;;;5446951;26;20232;-73
2024/04/17 01:35:46;;;;;;;1.07;0.90;;;6.00;99.90;;;;;;5446698;26;20270;-71
2024/04/17 01:38:12;;;;;;;1.20;1.20;;;6.00;99.90;;;;;;5445697;26;20228;-72
2024/04/17 01:40:44;;;;;;;1.77;1.10;;;6.00;99.90;;;;;;5411505;26;20338;-71
2024/04/17 01:43:12;;;;;;;1.40;1.30;;;6.00;99.90;;;;;;5416147;26;20286;-71
2024/04/17 01:45:46;;;;;;;1.17;1.03;;;6.00;99.90;;;;;;5410476;26;20229;-71
2024/04/17 01:48:12;;;;;;;1.33;1.10;;;6.00;99.90;;;;;;5446575;26;20284;-71
2024/04/17 01:50:41;;;;;;;1.37;0.93;;;6.00;99.90;;;;;;5446556;26;20232;-71
2024/04/17 01:53:06;;;;;;;1.53;1.27;;;6.00;99.90;;;;;;5445761;26;20233;-71
2024/04/17 01:55:35;;;;;;;1.03;1.00;;;5.90;99.90;;;;;;5446195;26;20316;-71
2024/04/17 01:58:01;;;;;;;1.20;1.07;;;5.80;99.90;;;;;;5444940;26;20236;-71
2024/04/17 02:00:33;;;;;;;1.53;1.10;;;5.80;99.90;;;;;;5444844;26;20341;-71
2024/04/17 02:02:59;;;;;;;2.07;1.10;;;5.80;99.90;;;;;;5446491;26;20758;-71
2024/04/17 02:05:27;;;;;;;2.47;1.30;;;5.80;99.90;;;;;;5446119;26;20324;-71
2024/04/17 02:07:53;;;;;;;2.20;1.13;;;5.90;99.90;;;;;;5445904;26;20334;-71
2024/04/17 02:10:22;;;;;;;1.57;1.00;;;5.90;99.90;;;;;;5444257;26;20252;-71
2024/04/17 02:12:50;;;;;;;2.27;1.10;;;5.90;99.90;;;;;;5444365;26;20232;-72
2024/04/17 02:15:16;;;;;;;0.90;0.90;;;5.90;99.90;;;;;;5442104;26;20619;-72
2024/04/17 02:17:47;;;;;;;1.47;0.93;;;5.90;99.90;;;;;;5445803;26;20267;-72
2024/04/17 02:20:13;;;;;;;3.57;1.30;;;5.80;99.90;;;;;;5419735;26;20237;-70
2024/04/17 02:22:42;;;;;;;1.43;1.10;;;5.70;99.90;;;;;;5409753;26;20229;-71
2024/04/17 02:25:08;;;;;;;2.53;1.43;;;5.60;99.90;;;;;;5409827;26;20225;-72
2024/04/17 02:27:36;;;;;;;1.33;1.20;;;5.60;99.90;;;;;;5410193;26;20263;-72
2024/04/17 02:30:03;;;;;;;1.30;1.20;;;5.70;99.90;;;;;;5416262;26;20237;-72
2024/04/17 02:32:33;;;;;;;0.90;0.90;;;5.70;99.90;;;;;;5429978;26;20240;-72
2024/04/17 02:35:02;;;;;;;2.57;1.50;;;5.70;99.90;;;;;;5443470;26;20216;-72
2024/04/17 02:37:30;;;;;;;1.10;1.10;;;5.60;99.90;;;;;;5443215;26;20365;-73
2024/04/17 02:39:56;;;;;;;2.17;1.50;;;5.60;99.90;;;;;;5443350;26;20275;-72
2024/04/17 02:42:24;;;;;;;1.43;1.27;;;5.60;99.90;;;;;;5443353;26;20228;-72
2024/04/17 02:44:50;;;;;;;2.37;1.43;;;5.60;99.90;;;;;;5426140;26;20241;-72
2024/04/17 02:47:19;;;;;;;1.40;1.30;;;5.60;99.90;;;;;;5431452;26;20282;-72
2024/04/17 02:49:45;;;;;;;1.40;1.30;;;5.60;99.90;;;;;;5443072;26;20271;-71
2024/04/17 02:52:16;;;;;;;1.50;1.40;;;5.50;99.90;;;;;;5455124;26;20356;-71
2024/04/17 02:54:42;;;;;;;1.50;1.40;;;5.60;99.90;;;;;;5442861;26;20743;-71
2024/04/17 02:57:11;;;;;;;1.50;1.40;;;5.60;99.90;;;;;;5442184;26;20244;-72
2024/04/17 02:59:37;;;;;;;1.87;1.30;;;5.60;99.90;;;;;;5416634;26;20249;-72
2024/04/17 03:02:05;;;;;;;1.57;1.20;;;5.70;99.90;;;;;;5407676;26;20229;-72
2024/04/17 03:04:31;;;;;;;1.30;1.20;;;5.70;99.90;;;;;;5408302;26;20233;-72
2024/04/17 03:07:00;;;;;;;1.70;1.57;;;5.70;99.90;;;;;;5420686;26;20267;-72
2024/04/17 03:09:28;;;;;;;1.50;1.30;;;5.70;99.90;;;;;;5445196;26;20228;-72
2024/04/17 03:11:57;;;;;;;2.60;1.50;;;5.70;99.90;;;;;;5414815;26;20293;-72
2024/04/17 03:14:23;;;;;;;1.30;1.20;;;5.70;99.90;;;;;;5408898;26;20272;-72
2024/04/17 03:16:51;;;;;;;2.10;1.20;;;5.70;99.90;;;;;;5426579;26;20706;-72
2024/04/17 03:19:17;;;;;;;2.03;1.90;;;5.70;99.90;;;;;;5444754;26;20220;-72
2024/04/17 03:21:46;;;;;;;2.10;1.40;;;5.60;99.90;;;;;;5444736;26;20267;-72
2024/04/17 03:24:11;;;;;;;1.57;1.47;;;5.70;99.90;;;;;;5444246;26;20232;-72
2024/04/17 03:26:43;;;;;;;3.03;1.67;;;5.70;99.90;;;;;;5445131;26;21019;-72
2024/04/17 03:29:08;;;;;;;1.80;1.70;;;5.60;99.90;;;;;;5444845;26;20258;-72
2024/04/17 03:31:37;;;;;;;1.70;1.60;;;5.70;99.90;;;;;;5444835;26;20232;-72
2024/04/17 03:34:03;;;;;;;4.07;1.80;;;5.70;99.90;;;;;;5444762;26;20225;-72
2024/04/17 03:36:32;;;;;;;3.90;2.17;;;5.70;99.90;;;;;;5444305;26;20270;-72
2024/04/17 03:39:00;;;;;;;1.90;1.70;;;5.70;99.90;;;;;;5444823;26;20285;-72
2024/04/17 03:41:29;;;;;;;1.60;1.50;;;5.70;99.90;;;;;;5444475;26;20270;-72
2024/04/17 03:43:57;;;;;;;2.43;1.63;;;5.60;99.90;;;;;;5444614;26;20232;-72
2024/04/17 03:46:26;;;;;;;1.63;1.53;;;5.60;99.90;;;;;;5450208;26;20779;-72
2024/04/17 03:48:54;;;;;;;4.33;1.67;;;5.60;99.90;;;;;;5481110;26;20269;-72
2024/04/17 03:51:20;;;;;;;2.20;1.87;;;5.60;99.90;;;;;;5480656;26;20228;-72
2024/04/17 03:53:50;;;;;;;1.60;1.50;;;5.60;99.90;;;;;;5455658;26;20282;-72
2024/04/17 03:56:16;;;;;;;3.47;1.90;;;5.60;99.90;;;;;;5444017;26;20216;-72
2024/04/17 03:58:44;;;;;;;1.90;1.70;;;5.60;99.90;;;;;;5444241;26;20291;-72
2024/04/17 04:01:13;;;;;;;1.60;1.50;;;5.60;99.90;;;;;;5444325;26;20224;-72
2024/04/17 04:03:42;;;;;;;2.40;1.70;;;5.60;99.90;;;;;;5444323;26;20251;-72
2024/04/17 04:06:08;;;;;;;1.80;1.70;;;5.70;99.90;;;;;;5443749;26;20274;-71
2024/04/17 04:08:36;;;;;;;1.63;1.53;;;5.60;99.90;;;;;;5444234;26;20236;-71
2024/04/17 04:11:03;;;;;;;1.87;1.73;;;5.60;99.90;;;;;;5444180;26;20735;-72
2024/04/17 04:13:31;;;;;;;1.67;1.57;;;5.60;99.90;;;;;;5444614;26;20228;-72
2024/04/17 04:15:57;;;;;;;1.70;1.53;;;5.60;99.90;;;;;;5444310;26;20231;-71
2024/04/17 04:18:29;;;;;;;1.67;1.57;;;5.60;99.90;;;;;;5444339;26;20707;-71
2024/04/17 04:20:55;;;;;;;1.50;1.40;;;5.50;99.90;;;;;;5444375;26;20722;-71
2024/04/17 04:23:24;;;;;;;1.90;1.70;;;5.60;99.90;;;;;;5443293;26;20337;-71
2024/04/17 04:25:50;;;;;;;1.60;1.50;;;5.60;99.90;;;;;;5443863;26;20271;-72
2024/04/17 04:28:18;;;;;;;1.90;1.80;;;5.60;99.90;;;;;;5443794;26;20224;-72
2024/04/17 04:30:44;;;;;;;2.30;1.50;;;5.60;99.90;;;;;;5443779;26;20232;-71
2024/04/17 04:33:13;;;;;;;3.47;1.80;;;5.70;99.90;;;;;;5443463;26;20232;-71
2024/04/17 04:35:42;;;;;;;1.70;1.60;;;5.60;99.90;;;;;;5444944;26;20228;-71
2024/04/17 04:38:10;;;;;;;1.70;1.60;;;5.70;99.90;;;;;;5447485;26;20685;-71
2024/04/17 04:40:36;;;;;;;1.30;1.30;;;5.70;99.90;;;;;;5447368;26;20562;-71
2024/04/17 04:43:07;;;;;;;2.80;1.73;;;5.80;99.90;;;;;;5459599;26;20227;-72
2024/04/17 04:45:33;;;;;;;2.20;1.80;;;5.80;99.90;;;;;;5483966;26;20289;-72
2024/04/17 04:48:01;;;;;;;1.90;1.80;;;5.70;99.90;;;;;;5448673;26;20275;-72
2024/04/17 04:50:27;;;;;;;1.70;1.60;;;5.70;99.90;;;;;;5447221;26;20245;-72
2024/04/17 04:52:58;;;;;;;3.80;1.50;;;5.70;99.90;;;;;;5446756;26;20254;-72
2024/04/17 04:55:24;;;;;;;1.87;1.70;;;5.70;99.90;;;;;;5447212;26;20228;-72
2024/04/17 04:57:53;;;;;;;2.40;1.87;;;5.80;99.90;;;;;;5433546;26;20283;-72
2024/04/17 05:00:19;;;;;;;3.43;1.73;;;5.80;99.90;;;;;;5434809;26;20232;-72
2024/04/17 05:02:48;;;;;;;2.33;1.80;;;5.80;99.90;;;;;;5446960;26;20730;-72
2024/04/17 05:05:14;;;;;;;1.63;1.53;;;5.90;99.90;;;;;;5447194;26;20274;-72
2024/04/17 05:07:42;;;;;;;3.30;1.70;;;5.90;99.90;;;;;;5446739;26;20835;-72
2024/04/17 05:10:11;;;;;;;1.70;1.60;;;6.00;99.90;;;;;;5446960;26;20275;-72
2024/04/17 05:12:40;;;;;;;1.70;1.60;;;6.10;99.90;;;;;;5446933;26;20267;-72
2024/04/17 05:15:06;;;;;;;1.87;1.70;;;6.20;99.90;;;;;;5446555;26;20582;-72
2024/04/17 05:17:35;;;;;;;1.97;1.57;;;6.20;99.90;;;;;;5447061;26;20809;-72
2024/04/17 05:20:01;;;;;;;1.63;1.40;;;6.20;99.90;;;;;;5446913;26;20567;-72
2024/04/17 05:22:29;;;;;;;1.80;1.40;;;6.30;99.90;;;;;;5446396;26;20232;-71
2024/04/17 05:24:55;;;;;;;1.63;1.53;;;6.30;99.90;;;;;;5446900;26;20569;-72
2024/04/17 05:27:26;;;;;;;1.83;1.73;;;6.20;99.90;;;;;;5446607;26;20228;-72
2024/04/17 05:29:52;;;;;;;2.10;1.80;;;6.00;99.90;;;;;;5447251;26;20305;-72
2024/04/17 05:32:21;;;;;;;2.10;1.90;;;5.90;99.90;;;;;;5446564;26;20236;-72
2024/04/17 05:34:47;;;;;;;2.53;1.80;;;5.90;99.90;;;;;;5446807;26;20273;-72
2024/04/17 05:37:15;;;;;;;3.80;2.00;;;5.90;99.90;;;;;;5446262;26;20232;-72
2024/04/17 05:39:41;;;;;;;2.67;2.23;;;5.90;99.90;;;;;;5446688;26;20282;-72
2024/04/17 05:42:10;;;;;;;1.80;1.70;;;6.00;99.90;;;;;;5446379;26;21017;-72
2024/04/17 05:44:39;;;;;;;12.97;3.13;;;6.00;99.90;;;;;;5446625;26;20228;-72
2024/04/17 05:47:08;;;;;;;1.83;1.73;;;5.90;99.90;;;;;;5410574;26;20350;-72
2024/04/17 05:49:34;;;;;;;1.90;1.80;;;5.90;99.90;;;;;;5410729;26;20229;-72
2024/04/17 05:52:03;;;;;;;2.50;1.60;;;5.90;99.90;;;;;;5410219;26;20233;-72
2024/04/17 05:54:29;;;;;;;2.70;1.67;;;6.00;99.90;;;;;;5410425;26;20230;-73
2024/04/17 05:56:57;;;;;;;2.30;1.63;;;5.90;99.90;;;;;;5441311;26;20295;-72
2024/04/17 05:59:23;;;;;;;2.83;2.20;;;6.00;99.90;;;;;;5446445;26;20244;-72
2024/04/17 06:01:55;;;;;;;2.60;1.60;;;5.90;99.90;;;;;;5446220;26;20228;-72
2024/04/17 06:04:20;;;;;;;2.27;1.53;;;6.00;99.90;;;;;;5446022;26;20261;-72
2024/04/17 06:06:49;;;;;;;2.33;1.57;;;6.10;99.90;;;;;;5445664;26;20236;-72
2024/04/17 06:09:15;;;;;;;1.70;1.60;;;6.00;99.90;;;;;;5445825;26;20223;-72
2024/04/17 06:11:43;;;;;;;1.80;1.70;;;6.10;99.90;;;;;;5445838;26;20605;-72
2024/04/17 06:14:09;;;;;;;1.50;1.40;;;6.10;99.90;;;;;;5445791;26;20860;-72
2024/04/17 06:16:38;;;;;;;2.27;1.43;;;6.00;99.90;;;;;;5431770;26;20233;-72
2024/04/17 06:19:07;;;;;;;1.50;1.40;;;6.10;99.90;;;;;;5409869;26;20321;-72
2024/04/17 06:21:35;;;;;;;1.67;1.37;;;6.10;99.90;;;;;;5409814;26;20237;-72
2024/04/17 06:24:01;;;;;;;1.77;1.67;;;6.20;99.90;;;;;;5410176;26;20233;-72
2024/04/17 06:26:30;;;;;;;1.50;1.40;;;6.30;99.90;;;;;;5409695;26;20233;-72
2024/04/17 06:28:56;;;;;;;1.30;1.20;;;6.40;99.90;;;;;;5410267;26;20229;-72
2024/04/17 06:31:25;;;;;;;1.73;1.63;;;6.50;99.90;;;;;;5410092;26;20276;-72
2024/04/17 06:33:51;;;;;;;1.27;1.17;;;6.50;99.90;;;;;;5410129;26;20239;-72
2024/04/17 06:36:23;;;;;;;1.57;1.43;;;6.60;99.90;;;;;;5455723;26;20278;-72
2024/04/17 06:38:48;;;;;;;2.10;1.20;;;6.40;99.90;;;;;;5482631;26;20255;-72
2024/04/17 06:41:17;;;;;;;1.50;1.40;;;6.50;99.90;;;;;;5475954;26;20280;-72
2024/04/17 06:43:43;;;;;;;1.30;1.20;;;6.50;99.90;;;;;;5446102;26;20228;-72
2024/04/17 06:46:11;;;;;;;2.20;1.30;;;6.60;99.90;;;;;;5445400;26;20262;-72
2024/04/17 06:48:37;;;;;;;1.43;1.33;;;6.70;99.90;;;;;;5445700;26;20950;-72
2024/04/17 06:51:06;;;;;;;2.40;1.50;;;6.70;99.90;;;;;;5445458;26;20266;-72
2024/04/17 06:53:35;;;;;;;1.63;1.03;;;6.80;99.90;;;;;;5409514;26;20284;-73
2024/04/17 06:56:03;;;;;;;1.20;1.10;;;6.70;99.90;;;;;;5425753;26;20267;-73
2024/04/17 06:58:29;;;;;;;1.77;1.67;;;6.80;99.90;;;;;;5444737;26;20291;-72
2024/04/17 07:00:58;;;;;;;1.20;1.10;;;6.90;99.90;;;;;;5445624;26;20225;-72
2024/04/17 07:03:24;;;;;;;2.50;2.30;;;7.00;99.90;;;;;;5445128;26;20275;-72
2024/04/17 07:06:02;;;;;;;2.80;2.60;;;7.00;99.90;;;;;;5445030;26;20225;-72
2024/04/17 07:08:28;;;;;;;1.30;1.20;;;7.10;99.90;;;;;;5444957;26;20577;-73
2024/04/17 07:11:01;;;;;;;1.30;1.20;;;7.20;99.90;;;;;;5445278;26;20291;-72
2024/04/17 07:13:27;;;;;;;1.57;1.23;;;7.30;99.90;;;;;;5445147;26;20255;-72
2024/04/17 07:15:57;;;;;;;5.80;5.20;;;7.40;99.90;;;;;;5444804;26;20216;-72
2024/04/17 07:18:23;;;;;;;2.00;1.90;;;7.50;99.90;;;;;;5445340;26;20267;-72
2024/04/17 07:20:52;;;;;;;2.60;1.30;;;7.50;99.90;;;;;;5445122;26;20698;-73
2024/04/17 07:23:18;;;;;;;1.23;1.00;;;7.60;99.90;;;;;;5445157;26;20220;-75
2024/04/17 07:25:46;;;;;;;1.70;1.00;;;7.50;99.90;;;;;;5445085;26;20742;-72
2024/04/17 07:28:15;;;;;;;1.23;1.03;;;7.60;99.90;;;;;;5445166;26;20217;-72
2024/04/17 07:30:44;;;;;;;1.57;1.00;;;7.50;99.90;;;;;;5445104;26;20379;-72
2024/04/17 07:33:10;;;;;;;1.10;1.10;;;7.50;99.90;;;;;;5444504;26;20284;-72
2024/04/17 07:35:38;;;;;;;1.30;1.20;;;7.50;99.90;;;;;;5444975;26;20260;-73
2024/04/17 07:38:04;;;;;;;1.60;0.90;;;7.50;99.90;;;;;;5444087;26;20248;-72
2024/04/17 07:40:33;;;;;;;0.90;0.90;;;7.60;99.90;;;;;;5444834;26;20228;-72
2024/04/17 07:42:59;;;;;;;1.07;0.83;;;7.60;99.90;;;;;;5445084;26;20736;-72
2024/04/17 07:45:30;;;;;;;0.70;0.70;;;7.60;99.90;;;;;;5444478;26;20240;-72
2024/04/17 07:47:56;;;;;;;1.30;0.60;;;7.50;99.90;;;;;;5419687;26;20258;-72
2024/04/17 07:50:24;;;;;;;2.70;1.00;;;7.50;99.90;;;;;;5444779;26;20779;-72
2024/04/17 07:52:50;;;;;;;0.70;0.60;;;7.50;99.90;;;;;;5444572;26;20274;-72
2024/04/17 07:55:19;;;;;;;0.67;0.60;;;7.60;99.90;;;;;;5444746;26;20220;-72
2024/04/17 07:57:45;;;;;;;0.73;0.70;;;7.60;99.90;;;;;;5444706;26;20339;-72
2024/04/17 08:00:14;;;;;;;0.90;0.70;;;7.60;99.90;;;;;;5445208;26;20572;-72
2024/04/17 08:02:45;;;;;;;0.60;0.60;;;7.40;99.90;;;;;;5444958;26;20232;-72
2024/04/17 08:05:14;;;;;;;0.80;0.60;;;7.30;99.90;;;;;;5444512;26;20224;-72
2024/04/17 08:07:40;;;;;;;0.80;0.80;;;7.30;99.90;;;;;;5444094;26;20231;-72
2024/04/17 08:10:09;;;;;;;0.63;0.60;;;7.30;99.90;;;;;;5444946;26;20259;-72
2024/04/17 08:12:36;;;;;;;1.33;1.07;;;7.30;99.90;;;;;;5447929;26;20886;-72
2024/04/17 08:15:05;;;;;;;1.77;1.30;;;7.40;99.90;;;;;;5448092;26;20259;-72
2024/04/17 08:17:30;;;;;;;1.33;0.70;;;7.30;99.90;;;;;;5448113;26;20266;-72
2024/04/17 08:20:02;;;;;;;6.30;4.80;;;7.40;99.90;;;;;;5447531;26;20284;-72
2024/04/17 08:22:27;;;;;;;5.63;4.93;;;7.30;99.90;;;;;;5447409;26;20271;-72
2024/04/17 08:24:56;;;;;;;2.50;1.40;;;7.50;99.90;;;;;;5447629;26;20232;-72
2024/04/17 08:27:22;;;;;;;0.73;0.73;;;7.60;99.90;;;;;;5447397;26;20242;-72
2024/04/17 08:29:51;;;;;;;1.10;0.70;;;7.80;99.90;;;;;;5447606;26;20228;-72
2024/04/17 08:32:17;;;;;;;0.80;0.80;;;7.80;99.90;;;;;;5447422;26;20773;-72
2024/04/17 08:34:45;;;;;;;1.33;1.07;;;8.00;99.90;;;;;;5447244;26;20247;-72
2024/04/17 08:37:14;;;;;;;0.83;0.70;;;8.20;99.90;;;;;;5446938;26;20558;-72
2024/04/17 08:39:42;;;;;;;0.90;0.70;;;8.40;99.90;;;;;;5447499;26;20236;-72
2024/04/17 08:42:14;;;;;;;1.07;0.90;;;8.60;99.90;;;;;;5447028;26;20237;-73
2024/04/17 08:44:44;;;;;;;1.37;0.70;;;8.80;99.90;;;;;;5447218;26;20232;-72
2024/04/17 08:47:11;;;;;;;1.80;0.70;;;9.00;99.90;;;;;;5446962;26;20263;-73
2024/04/17 08:49:42;;;;;;;1.80;0.70;;;8.90;99.90;;;;;;5447614;26;20668;-72
2024/04/17 08:52:13;;;;;;;1.83;0.87;;;8.60;99.90;;;;;;5446807;26;20687;-72
2024/04/17 08:54:43;;;;;;;3.50;1.10;;;8.50;99.90;;;;;;5447089;26;20765;-72
2024/04/17 08:57:11;;;;;;;1.77;0.90;;;8.60;99.90;;;;;;5447056;26;20228;-73
2024/04/17 08:59:39;;;;;;;0.63;0.63;;;8.60;99.90;;;;;;5447456;26;20228;-72
2024/04/17 09:02:13;;;;;;;0.87;0.83;;;8.50;99.90;;;;;;5446997;26;20258;-72
2024/04/17 09:04:43;;;;;;;1.10;0.80;;;8.60;99.90;;;;;;5447331;26;20228;-72
2024/04/17 09:07:09;;;;;;;1.10;1.00;;;8.70;99.90;;;;;;5446397;26;20228;-73
2024/04/17 09:09:41;;;;;;;1.90;0.80;;;8.70;99.90;;;;;;5447296;26;20232;-72
2024/04/17 09:12:11;;;;;;;0.80;0.80;;;8.90;99.90;;;;;;5446774;26;20271;-72
2024/04/17 09:14:40;;;;;;;0.93;0.80;;;9.20;99.90;;;;;;5447359;26;20228;-73
2024/04/17 09:17:07;;;;;;;1.30;1.10;;;9.30;99.90;;;;;;5446776;26;20262;-72
2024/04/17 09:19:36;;;;;;;1.40;1.03;;;9.30;99.90;;;;;;5446771;26;20613;-72
2024/04/17 09:22:02;;;;;;;1.60;1.10;;;9.20;99.90;;;;;;5445680;26;20270;-72
2024/04/17 09:24:31;;;;;;;3.33;1.00;;;9.20;99.90;;;;;;5460915;26;20327;-72
2024/04/17 09:27:00;;;;;;;1.53;0.90;;;9.30;99.90;;;;;;5483391;26;20226;-72
2024/04/17 09:29:29;;;;;;;1.43;0.97;;;9.40;99.90;;;;;;5483338;26;20228;-73
2024/04/17 09:31:55;;;;;;;2.57;1.10;;;9.60;99.90;;;;;;5448185;26;20747;-72
2024/04/17 09:34:23;;;;;;;1.03;1.03;;;9.80;99.90;;;;;;5446484;26;20274;-72
2024/04/17 09:36:49;;;;;;;1.30;1.10;;;9.90;99.90;;;;;;5446452;26;20858;-73
2024/04/17 09:39:18;;;;;;;2.87;1.00;;;10.00;99.90;;;;;;5446491;26;20282;-72
2024/04/17 09:41:45;;;;;;;2.17;1.10;;;10.40;99.90;;;;;;5446430;26;20235;-72
2024/04/17 09:44:20;;;;;;;2.50;1.13;;;10.50;99.90;;;;;;5446116;26;20296;-73
2024/04/17 09:46:53;;;;;;;1.10;1.00;;;10.30;99.90;;;;;;5446072;26;20244;-72
2024/04/17 09:49:22;;;;;;;1.20;1.10;;;10.20;99.90;;;;;;5446325;26;20337;-72
2024/04/17 09:51:53;;;;;;;1.20;1.10;;;10.10;99.90;;;;;;5445996;26;20267;-72
2024/04/17 09:54:24;;;;;;;1.00;1.00;;;9.90;99.90;;;;;;5446239;26;20228;-72
2024/04/17 09:56:50;;;;;;;2.10;1.67;;;9.90;99.90;;;;;;5446343;26;20271;-73
2024/04/17 09:59:22;;;;;;;2.70;1.00;;;9.80;99.90;;;;;;5445853;26;20279;-72
2024/04/17 10:01:50;;;;;;;1.10;0.93;;;9.80;99.90;;;;;;5445934;26;20232;-72
2024/04/17 10:04:19;;;;;;;1.00;0.80;;;9.80;99.90;;;;;;5446193;26;21206;-73
2024/04/17 10:06:45;;;;;;;1.23;1.03;;;9.80;99.90;;;;;;5446130;26;20224;-72
2024/04/17 10:09:15;;;;;;;0.90;0.90;;;9.80;99.90;;;;;;5445869;26;20711;-72
2024/04/17 10:11:41;;;;;;;1.27;1.13;;;9.90;99.90;;;;;;5446216;26;20790;-73
2024/04/17 10:14:12;;;;;;;0.87;0.87;;;10.10;99.90;;;;;;5445646;26;20339;-73
2024/04/17 10:16:41;;;;;;;2.10;0.93;;;10.20;99.90;;;;;;5445996;26;20588;-72
2024/04/17 10:19:10;;;;;;;0.90;0.90;;;10.40;99.90;;;;;;5445806;26;20240;-73
2024/04/17 10:21:36;;;;;;;0.60;0.60;;;10.40;99.90;;;;;;5445563;26;20582;-72
2024/04/17 10:24:09;;;;;;;1.10;0.90;;;10.50;99.90;;;;;;5445749;26;20766;-72
2024/04/17 10:26:43;;;;;;;1.23;0.90;;;10.70;99.90;;;;;;5445961;26;20236;-72
2024/04/17 10:29:18;;;;;;;2.10;1.07;;;10.80;99.90;;;;;;5445990;26;20231;-72
2024/04/17 10:31:57;;;;;;;0.73;0.70;;;10.80;99.90;;;;;;5446359;26;20291;-72
2024/04/17 10:34:28;;;;;;;1.93;0.83;;;10.70;99.90;;;;;;5444475;26;20266;-72
2024/04/17 10:36:54;;;;;;;1.17;0.70;;;10.90;99.90;;;;;;5446257;26;20233;-72
2024/04/17 10:39:23;;;;;;;0.63;0.60;;;11.10;99.90;;;;;;5446333;26;20300;-72
2024/04/17 10:41:49;;;;;;;0.63;0.63;;;11.50;99.90;;;;;;5445971;26;20240;-72
2024/04/17 10:44:20;;;;;;;0.70;0.70;;;11.70;99.90;;;;;;5446031;26;20282;-72
2024/04/17 10:46:47;;;;;;;2.07;0.67;;;11.80;99.90;;;;;;5428774;26;20287;-72
2024/04/17 10:49:20;;;;;;;1.03;0.90;;;11.70;99.90;;;;;;5409795;26;20237;-72
2024/04/17 10:51:47;;;;;;;1.90;0.60;;;11.30;99.40;;;;;;5409664;26;20260;-72
2024/04/17 10:54:16;;;;;;;0.67;0.67;;;11.20;99.90;;;;;;5409376;26;20333;-72
2024/04/17 10:56:42;;;;;;;1.07;0.70;;;11.40;99.90;;;;;;5409541;26;20229;-72
2024/04/17 10:59:11;;;;;;;0.50;0.50;;;11.70;99.90;;;;;;5409348;26;20279;-73
2024/04/17 11:01:37;;;;;;;1.00;0.70;;;12.10;99.90;;;;;;5409348;26;20241;-72
2024/04/17 11:04:06;;;;;;;2.00;1.07;;;12.20;99.90;;;;;;5409505;26;20225;-72
2024/04/17 11:06:36;;;;;;;0.70;0.60;;;12.00;99.90;;;;;;5409295;26;20272;-72
2024/04/17 11:09:07;;;;;;;0.90;0.83;;;11.90;99.90;;;;;;5409446;26;20229;-72
2024/04/17 11:11:33;;;;;;;1.53;1.00;;;11.90;99.40;;;;;;5409806;26;20283;-72
2024/04/17 11:14:01;;;;;;;1.17;0.80;;;12.20;99.90;;;;;;5409620;26;20241;-72
2024/04/17 11:16:27;;;;;;;0.80;0.80;;;12.40;99.90;;;;;;5435162;26;20267;-72
2024/04/17 11:18:56;;;;;;;1.07;0.80;;;12.90;99.90;;;;;;5445603;26;20232;-72
2024/04/17 11:21:22;;;;;;;0.90;0.90;;;13.10;99.90;;;;;;5444931;26;20228;-73
2024/04/17 11:23:54;;;;;;;0.63;0.57;;;13.30;99.10;;;;;;5444961;26;21158;-72
2024/04/17 11:26:20;;;;;;;0.50;0.50;;;13.40;96.70;;;;;;5445103;26;20220;-73
2024/04/17 11:28:48;;;;;;;0.60;0.60;;;13.40;97.30;;;;;;5445192;26;20266;-72
2024/04/17 11:31:15;;;;;;;0.83;0.70;;;13.00;96.10;;;;;;5444891;26;20229;-73
2024/04/17 11:33:47;;;;;;;0.97;0.50;;;12.50;96.40;;;;;;5445234;26;20236;-73
2024/04/17 11:36:14;;;;;;;2.67;1.10;;;12.30;94.70;;;;;;5444858;26;20228;-72
2024/04/17 11:38:43;;;;;;;0.80;0.80;;;12.30;95.10;;;;;;5445061;26;20270;-72
2024/04/17 11:41:13;;;;;;;0.70;0.53;;;12.50;97.10;;;;;;5445034;26;20271;-72
2024/04/17 11:43:42;;;;;;;1.93;0.90;;;12.90;98.50;;;;;;5444726;26;20236;-73
2024/04/17 11:46:09;;;;;;;1.53;0.90;;;13.20;95.80;;;;;;5437218;26;20732;-72
2024/04/17 11:48:38;;;;;;;1.77;0.90;;;13.40;94.50;;;;;;5408945;26;20237;-72
2024/04/17 11:51:04;;;;;;;0.80;0.77;;;13.20;95.20;;;;;;5408457;26;20273;-72
2024/04/17 11:53:33;;;;;;;1.07;0.90;;;13.30;95.80;;;;;;5408358;26;20229;-72
2024/04/17 11:55:59;;;;;;;0.77;0.77;;;13.40;95.80;;;;;;5408883;26;20264;-72
2024/04/17 11:58:30;;;;;;;0.97;0.87;;;13.50;95.80;;;;;;5407980;26;20249;-72
2024/04/17 12:00:56;;;;;;;1.23;0.70;;;13.40;96.00;;;;;;5408257;26;20233;-72
2024/04/17 12:03:25;;;;;;;0.70;0.70;;;13.50;96.30;;;;;;5408568;26;20266;-73
2024/04/17 12:05:52;;;;;;;1.10;1.00;;;13.70;97.20;;;;;;5408833;26;20757;-72
2024/04/17 12:08:20;;;;;;;3.03;0.93;;;13.80;97.60;;;;;;5408143;26;20284;-73
2024/04/17 12:10:47;;;;;;;0.80;0.70;;;14.10;97.00;;;;;;5408189;26;20221;-72
2024/04/17 12:13:16;;;;;;;0.70;0.70;;;14.30;96.70;;;;;;5422211;26;20599;-73
2024/04/17 12:15:44;;;;;;;0.80;0.80;;;14.50;95.30;;;;;;5444283;26;20650;-73
2024/04/17 12:18:13;;;;;;;2.87;1.00;;;14.70;94.20;;;;;;5443761;26;20284;-73
2024/04/17 12:20:39;;;;;;;1.53;0.80;;;14.70;94.40;;;;;;5443289;26;20315;-73
2024/04/17 12:23:08;;;;;;;3.53;1.30;;;14.70;94.50;;;;;;5443448;26;20336;-72
2024/04/17 12:28:20;;;;;;;2.00;0.80;;;14.30;92.30;;;;;;5446879;26;20259;-73
2024/04/17 12:30:52;;;;;;;0.97;0.80;;;14.30;93.00;;;;;;5444225;26;20583;-73
2024/04/17 12:33:21;;;;;;;0.60;0.60;;;13.90;93.60;;;;;;5443439;26;20826;-73
2024/04/17 12:35:49;;;;;;;1.03;0.93;;;13.60;93.40;;;;;;5444365;26;20608;-72
2024/04/17 12:38:18;;;;;;;0.90;0.90;;;13.50;94.20;;;;;;5443448;26;20220;-73
2024/04/17 12:40:47;;;;;;;0.83;0.80;;;13.70;95.50;;;;;;5444184;26;20606;-72
2024/04/17 12:43:16;;;;;;;1.03;0.93;;;13.80;95.40;;;;;;5443728;26;20263;-73
2024/04/17 12:45:44;;;;;;;0.70;0.60;;;13.50;94.40;;;;;;5443890;26;20252;-72
2024/04/17 12:48:16;;;;;;;1.80;0.90;;;13.30;95.20;;;;;;5443439;26;20263;-72
2024/04/17 12:50:48;;;;;;;0.70;0.70;;;13.20;95.70;;;;;;5443829;26;20271;-72
2024/04/17 12:53:17;;;;;;;14.80;10.83;;;13.20;95.70;;;;;;5443217;26;20225;-73
2024/04/17 12:55:53;;;;;;;0.90;0.90;;;13.40;96.40;;;;;;5443596;26;20275;-72
2024/04/17 12:58:21;;;;;;;0.70;0.70;;;13.70;96.40;;;;;;5446524;26;20278;-73
2024/04/17 13:00:50;;;;;;;1.03;0.80;;;13.80;96.20;;;;;;5446958;26;20433;-72
2024/04/17 13:03:18;;;;;;;1.73;0.87;;;13.80;95.40;;;;;;5447330;26;20224;-72